createdAt,value
2016-08-12T00:00:00.419Z,17.7
2016-08-12T00:00:13.803Z,17.7
2016-08-12T00:00:27.905Z,17.7
2016-08-12T00:00:41.266Z,17.8
2016-08-12T00:00:55.360Z,17.8
2016-08-12T00:01:10.210Z,17.8
2016-08-12T00:01:24.313Z,17.8
2016-08-12T00:01:36.929Z,17.7
2016-08-12T00:01:50.309Z,17.7
2016-08-12T00:02:03.674Z,17.8
2016-08-12T00:02:17.030Z,17.9
2016-08-12T00:02:31.913Z,17.8
2016-08-12T00:02:54.107Z,17.8
2016-08-12T00:03:07.465Z,17.6
2016-08-12T00:03:20.818Z,17.6
2016-08-12T00:03:34.199Z,17.6
2016-08-12T00:03:46.808Z,17.7
2016-08-12T00:04:00.950Z,17.7
2016-08-12T00:04:14.330Z,17.7
2016-08-12T00:04:26.184Z,17.5
2016-08-12T00:04:41.032Z,17.5
2016-08-12T00:04:52.895Z,17.6
2016-08-12T00:05:06.278Z,17.5
2016-08-12T00:05:19.648Z,17.6
2016-08-12T00:05:33.740Z,17.5
2016-08-12T00:05:47.094Z,17.6
2016-08-12T00:06:01.212Z,17.6
2016-08-12T00:06:15.349Z,17.6
2016-08-12T00:06:28.723Z,17.6
2016-08-12T00:06:42.857Z,17.7
2016-08-12T00:06:56.216Z,17.6
2016-08-12T00:07:11.099Z,17.5
2016-08-12T00:07:25.967Z,17.5
2016-08-12T00:07:39.334Z,17.6
2016-08-12T00:07:53.445Z,17.6
2016-08-12T00:08:09.102Z,17.7
2016-08-12T00:08:24.708Z,17.6
2016-08-12T00:08:38.825Z,17.6
2016-08-12T00:08:52.198Z,17.7
2016-08-12T00:09:04.809Z,17.7
2016-08-12T00:09:18.164Z,17.8
2016-08-12T00:09:30.058Z,17.8
2016-08-12T00:09:43.423Z,17.7
2016-08-12T00:09:56.782Z,17.7
2016-08-12T00:10:09.403Z,17.7
2016-08-12T00:10:22.043Z,17.7
2016-08-12T00:10:35.423Z,17.7
2016-08-12T00:10:48.772Z,17.6
2016-08-12T00:11:02.126Z,17.7
2016-08-12T00:11:15.526Z,17.6
2016-08-12T00:11:27.417Z,17.7
2016-08-12T00:11:41.534Z,17.8
2016-08-12T00:11:56.399Z,17.8
2016-08-12T00:12:10.507Z,17.8
2016-08-12T00:12:25.382Z,17.8
2016-08-12T00:12:37.994Z,17.8
2016-08-12T00:12:50.617Z,17.8
2016-08-12T00:13:02.498Z,17.8
2016-08-12T00:13:16.641Z,17.9
2016-08-12T00:13:31.513Z,17.9
2016-08-12T00:13:45.645Z,17.8
2016-08-12T00:13:59.756Z,17.9
2016-08-12T00:14:12.376Z,17.9
2016-08-12T00:14:25.810Z,17.9
2016-08-12T00:14:38.428Z,17.8
2016-08-12T00:14:52.551Z,17.7
2016-08-12T00:15:05.200Z,17.8
2016-08-12T00:15:19.359Z,17.7
2016-08-12T00:15:29.732Z,17.8
2016-08-12T00:15:43.085Z,17.8
2016-08-12T00:15:56.444Z,17.8
2016-08-12T00:16:09.814Z,17.8
2016-08-12T00:16:20.962Z,17.9
2016-08-12T00:16:34.354Z,17.6
2016-08-12T00:16:47.728Z,17.6
2016-08-12T00:17:02.570Z,17.5
2016-08-12T00:17:15.947Z,17.5
2016-08-12T00:17:29.317Z,17.7
2016-08-12T00:17:42.668Z,17.6
2016-08-12T00:18:04.667Z,17.6
2016-08-12T00:18:16.521Z,17.4
2016-08-12T00:18:30.633Z,17.4
2016-08-12T00:18:44.727Z,17.4
2016-08-12T00:18:55.898Z,17.4
2016-08-12T00:19:09.264Z,17.5
2016-08-12T00:19:21.117Z,17.5
2016-08-12T00:19:35.214Z,17.5
2016-08-12T00:20:00.010Z,17.7
2016-08-12T00:20:13.411Z,17.6
2016-08-12T00:20:23.791Z,17.7
2016-08-12T00:20:37.913Z,17.7
2016-08-12T00:20:51.266Z,17.8
2016-08-12T00:21:05.404Z,17.8
2016-08-12T00:21:19.577Z,17.8
2016-08-12T00:21:35.198Z,17.8
2016-08-12T00:21:49.328Z,17.8
2016-08-12T00:22:01.227Z,17.6
2016-08-12T00:22:14.612Z,17.7
2016-08-12T00:22:27.976Z,17.8
2016-08-12T00:22:39.110Z,17.8
2016-08-12T00:22:51.753Z,17.7
2016-08-12T00:23:05.858Z,17.8
2016-08-12T00:23:20.742Z,17.8
2016-08-12T00:23:33.392Z,17.8
2016-08-12T00:23:48.258Z,17.8
2016-08-12T00:24:02.425Z,17.9
2016-08-12T00:24:17.311Z,17.8
2016-08-12T00:24:29.960Z,17.8
2016-08-12T00:24:44.075Z,17.8
2016-08-12T00:24:58.948Z,17.7
2016-08-12T00:25:13.059Z,17.6
2016-08-12T00:25:24.919Z,17.6
2016-08-12T00:25:38.293Z,17.7
2016-08-12T00:25:50.890Z,17.7
2016-08-12T00:26:04.264Z,17.6
2016-08-12T00:26:16.933Z,17.5
2016-08-12T00:26:31.037Z,17.6
2016-08-12T00:26:43.727Z,17.5
2016-08-12T00:26:59.342Z,17.5
2016-08-12T00:27:14.210Z,17.6
2016-08-12T00:27:27.587Z,17.7
2016-08-12T00:27:40.973Z,17.6
2016-08-12T00:27:55.090Z,17.7
2016-08-12T00:28:09.209Z,17.7
2016-08-12T00:28:21.090Z,17.6
2016-08-12T00:28:35.996Z,17.6
2016-08-12T00:28:50.118Z,17.6
2016-08-12T00:29:02.803Z,17.6
2016-08-12T00:29:16.918Z,17.8
2016-08-12T00:29:31.834Z,17.7
2016-08-12T00:29:44.449Z,17.7
2016-08-12T00:29:57.068Z,17.8
2016-08-12T00:30:10.442Z,17.8
2016-08-12T00:30:23.804Z,17.9
2016-08-12T00:30:39.427Z,17.8
2016-08-12T00:30:53.529Z,17.7
2016-08-12T00:31:07.663Z,17.7
2016-08-12T00:31:20.281Z,17.7
2016-08-12T00:31:32.960Z,17.8
2016-08-12T00:31:47.084Z,17.8
2016-08-12T00:32:01.192Z,17.9
2016-08-12T00:32:15.316Z,17.7
2016-08-12T00:32:27.181Z,17.8
2016-08-12T00:32:40.566Z,17.9
2016-08-12T00:33:02.367Z,17.9
2016-08-12T00:33:17.235Z,17.9
2016-08-12T00:33:31.347Z,17.9
2016-08-12T00:33:45.516Z,18
2016-08-12T00:33:58.155Z,17.9
2016-08-12T00:34:13.033Z,17.9
2016-08-12T00:34:26.429Z,18
2016-08-12T00:34:39.057Z,18
2016-08-12T00:34:53.933Z,17.9
2016-08-12T00:35:06.557Z,17.9
2016-08-12T00:35:22.170Z,17.9
2016-08-12T00:35:34.809Z,17.9
2016-08-12T00:35:50.435Z,17.9
2016-08-12T00:36:03.779Z,17.9
2016-08-12T00:36:16.399Z,17.9
2016-08-12T00:36:30.536Z,17.9
2016-08-12T00:36:44.673Z,17.9
2016-08-12T00:36:58.056Z,18
2016-08-12T00:37:12.918Z,18
2016-08-12T00:37:26.303Z,17.9
2016-08-12T00:37:40.420Z,18
2016-08-12T00:37:53.055Z,18
2016-08-12T00:38:06.412Z,18
2016-08-12T00:38:20.515Z,18
2016-08-12T00:38:34.646Z,18
2016-08-12T00:38:48.760Z,18
2016-08-12T00:39:00.692Z,18
2016-08-12T00:39:13.307Z,18
2016-08-12T00:39:27.427Z,17.9
2016-08-12T00:39:40.819Z,17.9
2016-08-12T00:39:54.198Z,17.8
2016-08-12T00:40:08.306Z,17.9
2016-08-12T00:40:20.189Z,17.9
2016-08-12T00:40:34.313Z,17.9
2016-08-12T00:40:49.196Z,18
2016-08-12T00:41:02.565Z,18
2016-08-12T00:41:15.182Z,18
2016-08-12T00:41:30.083Z,18
2016-08-12T00:41:43.439Z,18
2016-08-12T00:41:55.297Z,18
2016-08-12T00:42:07.912Z,17.9
2016-08-12T00:42:23.528Z,18.1
2016-08-12T00:42:36.910Z,17.9
2016-08-12T00:42:51.837Z,17.9
2016-08-12T00:43:06.703Z,18
2016-08-12T00:43:18.578Z,18
2016-08-12T00:43:31.215Z,18
2016-08-12T00:43:45.317Z,17.9
2016-08-12T00:43:58.682Z,18
2016-08-12T00:44:10.548Z,18
2016-08-12T00:44:24.665Z,18
2016-08-12T00:44:38.029Z,18
2016-08-12T00:44:51.397Z,18
2016-08-12T00:45:03.273Z,18.1
2016-08-12T00:45:16.640Z,18.1
2016-08-12T00:45:30.823Z,18.1
2016-08-12T00:45:44.179Z,18.1
2016-08-12T00:45:55.292Z,18.2
2016-08-12T00:46:07.897Z,18.2
2016-08-12T00:46:22.002Z,18.2
2016-08-12T00:46:36.143Z,18.1
2016-08-12T00:46:50.310Z,18.2
2016-08-12T00:47:04.426Z,18.1
2016-08-12T00:47:17.791Z,18
2016-08-12T00:47:31.897Z,18.2
2016-08-12T00:47:44.533Z,18.2
2016-08-12T00:47:57.157Z,18.2
2016-08-12T00:48:17.442Z,18.2
2016-08-12T00:48:32.322Z,18.2
2016-08-12T00:48:44.921Z,18
2016-08-12T00:48:57.523Z,18.1
2016-08-12T00:49:11.661Z,18
2016-08-12T00:49:25.788Z,18
2016-08-12T00:49:39.164Z,18
2016-08-12T00:49:51.811Z,18
2016-08-12T00:50:05.932Z,17.9
2016-08-12T00:50:20.801Z,18
2016-08-12T00:50:36.403Z,18
2016-08-12T00:50:49.034Z,18
2016-08-12T00:51:03.137Z,18
2016-08-12T00:51:17.261Z,17.9
2016-08-12T00:51:29.863Z,18
2016-08-12T00:51:43.292Z,18
2016-08-12T00:51:55.910Z,17.9
2016-08-12T00:52:07.808Z,18
2016-08-12T00:52:21.917Z,18
2016-08-12T00:52:36.034Z,18.1
2016-08-12T00:52:49.415Z,17.9
2016-08-12T00:53:02.791Z,18
2016-08-12T00:53:15.411Z,18.1
2016-08-12T00:53:27.296Z,18
2016-08-12T00:53:41.398Z,18.1
2016-08-12T00:53:54.006Z,18
2016-08-12T00:54:06.633Z,18
2016-08-12T00:54:19.258Z,18.1
2016-08-12T00:54:31.867Z,18.2
2016-08-12T00:54:46.044Z,18.1
2016-08-12T00:55:00.159Z,18
2016-08-12T00:55:15.032Z,18
2016-08-12T00:55:29.159Z,18
2016-08-12T00:55:42.526Z,18
2016-08-12T00:55:54.413Z,18
2016-08-12T00:56:08.538Z,18
2016-08-12T00:56:21.887Z,18.1
2016-08-12T00:56:37.504Z,18.2
2016-08-12T00:56:50.870Z,18.2
2016-08-12T00:57:04.230Z,18.1
2016-08-12T00:57:16.854Z,18.1
2016-08-12T00:57:28.705Z,18.2
2016-08-12T00:57:42.820Z,18.1
2016-08-12T00:57:57.691Z,18.1
2016-08-12T00:58:11.082Z,18.1
2016-08-12T00:58:25.198Z,17.9
2016-08-12T00:58:39.316Z,18
2016-08-12T00:58:53.425Z,18
2016-08-12T00:59:06.780Z,18
2016-08-12T00:59:17.145Z,18
2016-08-12T00:59:31.247Z,18
2016-08-12T00:59:43.126Z,17.9
2016-08-12T00:59:55.738Z,17.9
2016-08-12T01:00:08.323Z,17.9
2016-08-12T01:00:22.440Z,17.9
2016-08-12T01:00:35.071Z,18
2016-08-12T01:00:49.929Z,18
2016-08-12T01:01:04.047Z,18
2016-08-12T01:01:17.413Z,17.9
2016-08-12T01:01:31.516Z,17.9
2016-08-12T01:01:44.129Z,18.1
2016-08-12T01:01:57.502Z,18
2016-08-12T01:02:10.889Z,18.1
2016-08-12T01:02:23.489Z,18.1
2016-08-12T01:02:34.592Z,18
2016-08-12T01:02:47.997Z,18.1
2016-08-12T01:03:02.870Z,18
2016-08-12T01:03:24.013Z,18.1
2016-08-12T01:03:39.686Z,18.2
2016-08-12T01:03:53.047Z,18
2016-08-12T01:04:04.916Z,18
2016-08-12T01:04:17.526Z,18
2016-08-12T01:04:30.131Z,18.1
2016-08-12T01:04:41.977Z,18
2016-08-12T01:04:56.850Z,18.1
2016-08-12T01:05:12.469Z,18
2016-08-12T01:05:26.582Z,18.1
2016-08-12T01:05:41.447Z,18.2
2016-08-12T01:05:57.077Z,18.1
2016-08-12T01:06:08.956Z,18
2016-08-12T01:06:23.063Z,18.1
2016-08-12T01:06:35.669Z,18.1
2016-08-12T01:06:49.042Z,18.1
2016-08-12T01:07:03.923Z,18
2016-08-12T01:07:18.132Z,18
2016-08-12T01:07:32.245Z,18
2016-08-12T01:07:44.102Z,18
2016-08-12T01:07:57.453Z,18
2016-08-12T01:08:10.815Z,18.1
2016-08-12T01:08:22.694Z,18
2016-08-12T01:08:36.805Z,18
2016-08-12T01:08:52.428Z,18
2016-08-12T01:09:06.543Z,18.1
2016-08-12T01:09:21.408Z,18.1
2016-08-12T01:09:35.514Z,18.1
2016-08-12T01:09:48.127Z,18
2016-08-12T01:10:01.494Z,18.1
2016-08-12T01:10:17.122Z,18.1
2016-08-12T01:10:29.748Z,18
2016-08-12T01:10:44.608Z,18.1
2016-08-12T01:10:57.978Z,17.8
2016-08-12T01:11:12.072Z,17.8
2016-08-12T01:11:24.688Z,17.8
2016-08-12T01:11:36.552Z,17.8
2016-08-12T01:11:49.230Z,17.7
2016-08-12T01:12:01.147Z,17.8
2016-08-12T01:12:16.016Z,17.8
2016-08-12T01:12:29.369Z,17.9
2016-08-12T01:12:42.746Z,17.9
2016-08-12T01:12:55.387Z,18
2016-08-12T01:13:08.729Z,18
2016-08-12T01:13:21.361Z,17.9
2016-08-12T01:13:33.974Z,18
2016-08-12T01:13:46.593Z,18
2016-08-12T01:14:00.720Z,18
2016-08-12T01:14:14.904Z,18.1
2016-08-12T01:14:27.527Z,18.1
2016-08-12T01:14:40.890Z,18
2016-08-12T01:14:53.532Z,18.1
2016-08-12T01:15:08.396Z,18
2016-08-12T01:15:21.773Z,18
2016-08-12T01:15:35.136Z,17.9
2016-08-12T01:15:47.767Z,18
2016-08-12T01:16:01.151Z,17.9
2016-08-12T01:16:14.518Z,18
2016-08-12T01:16:28.639Z,17.9
2016-08-12T01:16:42.757Z,17.9
2016-08-12T01:16:56.869Z,17.9
2016-08-12T01:17:11.749Z,17.9
2016-08-12T01:17:22.861Z,17.8
2016-08-12T01:17:36.282Z,17.9
2016-08-12T01:17:49.648Z,17.9
2016-08-12T01:18:12.995Z,17.9
2016-08-12T01:18:25.626Z,18
2016-08-12T01:18:39.021Z,17.9
2016-08-12T01:18:50.940Z,18
2016-08-12T01:19:04.304Z,17.9
2016-08-12T01:19:19.165Z,18
2016-08-12T01:19:34.030Z,18
2016-08-12T01:19:47.406Z,18.1
2016-08-12T01:20:00.768Z,18.1
2016-08-12T01:20:14.901Z,18
2016-08-12T01:20:30.529Z,18
2016-08-12T01:20:42.424Z,18
2016-08-12T01:20:55.044Z,18
2016-08-12T01:21:10.707Z,17.9
2016-08-12T01:21:21.863Z,18
2016-08-12T01:21:34.497Z,18
2016-08-12T01:21:48.611Z,18
2016-08-12T01:22:04.231Z,18.1
2016-08-12T01:22:19.092Z,18
2016-08-12T01:22:32.476Z,18
2016-08-12T01:22:45.086Z,18
2016-08-12T01:22:56.190Z,18.1
2016-08-12T01:23:08.809Z,18.2
2016-08-12T01:23:19.931Z,18.2
2016-08-12T01:23:32.546Z,18.1
2016-08-12T01:23:45.904Z,18.2
2016-08-12T01:23:58.518Z,18.2
2016-08-12T01:24:13.390Z,18.1
2016-08-12T01:24:26.001Z,18.1
2016-08-12T01:24:40.865Z,18.2
2016-08-12T01:24:55.731Z,18.1
2016-08-12T01:25:09.875Z,18.3
2016-08-12T01:25:24.786Z,18.3
2016-08-12T01:25:38.900Z,18.1
2016-08-12T01:25:52.277Z,18.1
2016-08-12T01:26:06.407Z,18.2
2016-08-12T01:26:20.516Z,18.2
2016-08-12T01:26:33.883Z,18
2016-08-12T01:26:47.991Z,18.1
2016-08-12T01:27:00.613Z,18.1
2016-08-12T01:27:13.263Z,18.1
2016-08-12T01:27:28.891Z,18.2
2016-08-12T01:27:41.526Z,18.1
2016-08-12T01:27:53.410Z,18.2
2016-08-12T01:28:07.521Z,18.1
2016-08-12T01:28:20.135Z,18.2
2016-08-12T01:28:34.995Z,18.2
2016-08-12T01:28:47.650Z,18
2016-08-12T01:29:01.776Z,18.1
2016-08-12T01:29:14.380Z,18.1
2016-08-12T01:29:29.241Z,18.2
2016-08-12T01:29:42.621Z,18.1
2016-08-12T01:29:57.476Z,18.1
2016-08-12T01:30:12.344Z,18.1
2016-08-12T01:30:26.462Z,18.2
2016-08-12T01:30:39.832Z,18.1
2016-08-12T01:30:53.213Z,18.1
2016-08-12T01:31:06.598Z,18.2
2016-08-12T01:31:21.508Z,18.2
2016-08-12T01:31:35.637Z,18.3
2016-08-12T01:31:48.990Z,18.1
2016-08-12T01:32:01.637Z,18.1
2016-08-12T01:32:15.757Z,18.1
2016-08-12T01:32:28.382Z,18.2
2016-08-12T01:32:40.249Z,18.2
2016-08-12T01:32:53.618Z,18.3
2016-08-12T01:33:07.806Z,18.2
2016-08-12T01:33:19.678Z,18.1
2016-08-12T01:33:41.878Z,18.1
2016-08-12T01:33:53.725Z,18.1
2016-08-12T01:34:04.093Z,18.1
2016-08-12T01:34:18.206Z,18.1
2016-08-12T01:34:30.085Z,18.1
2016-08-12T01:34:43.475Z,18.1
2016-08-12T01:34:55.349Z,18.1
2016-08-12T01:35:08.719Z,18.1
2016-08-12T01:35:22.077Z,18.2
2016-08-12T01:35:33.950Z,18.2
2016-08-12T01:35:46.574Z,18.2
2016-08-12T01:35:59.933Z,18.2
2016-08-12T01:36:14.078Z,18.1
2016-08-12T01:36:28.194Z,18.1
2016-08-12T01:36:42.306Z,18
2016-08-12T01:36:57.172Z,17.9
2016-08-12T01:37:09.780Z,18
2016-08-12T01:37:23.176Z,18
2016-08-12T01:37:38.834Z,18
2016-08-12T01:37:52.218Z,18.1
2016-08-12T01:38:05.588Z,18
2016-08-12T01:38:18.953Z,18.2
2016-08-12T01:38:32.326Z,18.2
2016-08-12T01:38:44.932Z,18.3
2016-08-12T01:38:57.543Z,18.2
2016-08-12T01:39:11.687Z,18.2
2016-08-12T01:39:25.048Z,18.2
2016-08-12T01:39:38.422Z,18.1
2016-08-12T01:39:54.042Z,17.9
2016-08-12T01:40:07.419Z,17.9
2016-08-12T01:40:22.286Z,17.9
2016-08-12T01:40:36.397Z,17.9
2016-08-12T01:40:50.496Z,18
2016-08-12T01:41:04.609Z,17.9
2016-08-12T01:41:17.288Z,18
2016-08-12T01:41:30.666Z,18.1
2016-08-12T01:41:42.544Z,18.1
2016-08-12T01:41:56.678Z,18.1
2016-08-12T01:42:10.812Z,18.1
2016-08-12T01:42:22.671Z,18
2016-08-12T01:42:36.060Z,18
2016-08-12T01:42:47.940Z,18.2
2016-08-12T01:43:01.299Z,18.1
2016-08-12T01:43:13.179Z,18.2
2016-08-12T01:43:27.304Z,18.1
2016-08-12T01:43:40.682Z,18.1
2016-08-12T01:43:55.545Z,18.2
2016-08-12T01:44:08.148Z,18.3
2016-08-12T01:44:20.817Z,18.2
2016-08-12T01:44:31.931Z,18.1
2016-08-12T01:44:44.579Z,18.2
2016-08-12T01:44:56.457Z,18.1
2016-08-12T01:45:09.832Z,18.2
2016-08-12T01:45:23.247Z,18.2
2016-08-12T01:45:35.876Z,18.2
2016-08-12T01:45:49.247Z,18.3
2016-08-12T01:46:04.116Z,18.3
2016-08-12T01:46:15.235Z,18.3
2016-08-12T01:46:29.336Z,18.3
2016-08-12T01:46:42.702Z,18.3
2016-08-12T01:46:56.068Z,18.3
2016-08-12T01:47:09.428Z,18.2
2016-08-12T01:47:22.813Z,18.3
2016-08-12T01:47:35.437Z,18.3
2016-08-12T01:47:48.804Z,18.3
2016-08-12T01:48:02.974Z,18.4
2016-08-12T01:48:17.852Z,18.3
2016-08-12T01:48:39.944Z,18.3
2016-08-12T01:48:54.825Z,18.3
2016-08-12T01:49:08.196Z,18.2
2016-08-12T01:49:20.079Z,18.3
2016-08-12T01:49:31.961Z,18.2
2016-08-12T01:49:44.589Z,18.2
2016-08-12T01:49:59.464Z,18.2
2016-08-12T01:50:13.576Z,18.1
2016-08-12T01:50:26.959Z,18.3
2016-08-12T01:50:41.064Z,18.2
2016-08-12T01:50:53.703Z,18.2
2016-08-12T01:51:04.825Z,18.1
2016-08-12T01:51:17.459Z,18.2
2016-08-12T01:51:30.833Z,18.3
2016-08-12T01:51:43.432Z,18.2
2016-08-12T01:51:56.825Z,18.2
2016-08-12T01:52:10.203Z,18.2
2016-08-12T01:52:23.569Z,18.3
2016-08-12T01:52:37.679Z,18.2
2016-08-12T01:52:53.302Z,18.2
2016-08-12T01:53:07.424Z,18.2
2016-08-12T01:53:21.534Z,18.2
2016-08-12T01:53:35.651Z,18.2
2016-08-12T01:53:47.530Z,18.2
2016-08-12T01:54:00.135Z,18.3
2016-08-12T01:54:14.270Z,18.3
2016-08-12T01:54:26.914Z,18.3
2016-08-12T01:54:38.777Z,18.2
2016-08-12T01:54:52.145Z,18.2
2016-08-12T01:55:07.015Z,18.2
2016-08-12T01:55:21.209Z,18.1
2016-08-12T01:55:33.806Z,18.1
2016-08-12T01:55:46.427Z,18.2
2016-08-12T01:56:01.299Z,18.2
2016-08-12T01:56:14.730Z,18.2
2016-08-12T01:56:28.848Z,18.3
2016-08-12T01:56:41.452Z,18.3
2016-08-12T01:56:54.061Z,18.2
2016-08-12T01:57:07.446Z,18.2
2016-08-12T01:57:20.832Z,18.3
2016-08-12T01:57:32.718Z,18.3
2016-08-12T01:57:45.329Z,18.3
2016-08-12T01:57:56.464Z,18.2
2016-08-12T01:58:10.588Z,18.2
2016-08-12T01:58:25.468Z,18.3
2016-08-12T01:58:38.129Z,18.3
2016-08-12T01:58:53.766Z,18.4
2016-08-12T01:59:07.883Z,18.3
2016-08-12T01:59:21.248Z,18.2
2016-08-12T01:59:35.384Z,18.3
2016-08-12T01:59:48.762Z,18.3
2016-08-12T02:00:00.631Z,18.2
2016-08-12T02:00:12.547Z,18.3
2016-08-12T02:00:26.709Z,18.2
2016-08-12T02:00:40.827Z,18.2
2016-08-12T02:00:53.437Z,18.1
2016-08-12T02:01:04.558Z,18.1
2016-08-12T02:01:18.687Z,18.1
2016-08-12T02:01:32.052Z,18.1
2016-08-12T02:01:45.438Z,18.2
2016-08-12T02:01:59.563Z,18.2
2016-08-12T02:02:11.440Z,18.2
2016-08-12T02:02:25.567Z,18.1
2016-08-12T02:02:38.946Z,18.2
2016-08-12T02:02:51.588Z,18.3
2016-08-12T02:03:05.732Z,18.3
2016-08-12T02:03:18.421Z,18.3
2016-08-12T02:03:41.073Z,18.3
2016-08-12T02:03:56.683Z,18.3
2016-08-12T02:04:10.122Z,18.3
2016-08-12T02:04:23.485Z,18.3
2016-08-12T02:04:37.618Z,18.3
2016-08-12T02:04:48.776Z,18.4
2016-08-12T02:05:02.901Z,18.4
2016-08-12T02:05:17.018Z,18.4
2016-08-12T02:05:31.886Z,18.4
2016-08-12T02:05:45.253Z,18.3
2016-08-12T02:05:58.618Z,18.4
2016-08-12T02:06:09.763Z,18.3
2016-08-12T02:06:23.140Z,18.3
2016-08-12T02:06:38.052Z,18.5
2016-08-12T02:06:51.414Z,18.5
2016-08-12T02:07:04.792Z,18.4
2016-08-12T02:07:18.959Z,18.5
2016-08-12T02:07:30.829Z,18.5
2016-08-12T02:07:43.513Z,18.4
2016-08-12T02:07:58.369Z,18.4
2016-08-12T02:08:11.838Z,18.4
2016-08-12T02:08:25.232Z,18.2
2016-08-12T02:08:37.854Z,18.2
2016-08-12T02:08:53.498Z,18.3
2016-08-12T02:09:06.861Z,18.3
2016-08-12T02:09:20.289Z,18.3
2016-08-12T02:09:32.916Z,18.3
2016-08-12T02:09:47.789Z,18.3
2016-08-12T02:10:02.663Z,18.3
2016-08-12T02:10:13.777Z,18.4
2016-08-12T02:10:26.426Z,18.3
2016-08-12T02:10:39.077Z,18.4
2016-08-12T02:10:53.928Z,18.3
2016-08-12T02:11:07.294Z,18.4
2016-08-12T02:11:19.925Z,18.5
2016-08-12T02:11:33.306Z,18.3
2016-08-12T02:11:45.920Z,18.4
2016-08-12T02:12:00.830Z,18.4
2016-08-12T02:12:13.441Z,18.5
2016-08-12T02:12:26.817Z,18.4
2016-08-12T02:12:40.933Z,18.5
2016-08-12T02:12:53.582Z,18.4
2016-08-12T02:13:07.683Z,18.3
2016-08-12T02:13:20.294Z,18.3
2016-08-12T02:13:32.896Z,18.3
2016-08-12T02:13:45.515Z,18.3
2016-08-12T02:13:59.626Z,18.4
2016-08-12T02:14:12.999Z,18.4
2016-08-12T02:14:27.124Z,18.4
2016-08-12T02:14:39.729Z,18.3
2016-08-12T02:14:51.613Z,18.3
2016-08-12T02:15:04.999Z,18.3
2016-08-12T02:15:19.121Z,18.3
2016-08-12T02:15:33.231Z,18.3
2016-08-12T02:15:45.124Z,18.4
2016-08-12T02:15:57.749Z,18.4
2016-08-12T02:16:11.106Z,18.3
2016-08-12T02:16:25.227Z,18.5
2016-08-12T02:16:38.668Z,18.5
2016-08-12T02:16:52.051Z,18.6
2016-08-12T02:17:06.180Z,18.4
2016-08-12T02:17:21.053Z,18.4
2016-08-12T02:17:33.679Z,18.4
2016-08-12T02:17:48.539Z,18.4
2016-08-12T02:18:01.137Z,18.4
2016-08-12T02:18:12.999Z,18.4
2016-08-12T02:18:35.338Z,18.3
2016-08-12T02:18:49.453Z,18.3
2016-08-12T02:19:05.091Z,18.3
2016-08-12T02:19:19.229Z,18.3
2016-08-12T02:19:31.844Z,18.3
2016-08-12T02:19:45.959Z,18.3
2016-08-12T02:20:00.069Z,18.3
2016-08-12T02:20:14.202Z,18.5
2016-08-12T02:20:29.831Z,18.5
2016-08-12T02:20:43.213Z,18.6
2016-08-12T02:20:58.070Z,18.5
2016-08-12T02:21:10.707Z,18.4
2016-08-12T02:21:23.320Z,18.5
2016-08-12T02:21:35.175Z,18.4
2016-08-12T02:21:47.806Z,18.5
2016-08-12T02:22:00.442Z,18.5
2016-08-12T02:22:13.054Z,18.5
2016-08-12T02:22:26.441Z,18.5
2016-08-12T02:22:40.551Z,18.6
2016-08-12T02:22:54.668Z,18.6
2016-08-12T02:23:07.339Z,18.5
2016-08-12T02:23:20.699Z,18.6
2016-08-12T02:23:33.311Z,18.5
2016-08-12T02:23:45.987Z,18.4
2016-08-12T02:24:00.148Z,18.5
2016-08-12T02:24:14.318Z,18.5
2016-08-12T02:24:28.445Z,18.5
2016-08-12T02:24:41.056Z,18.4
2016-08-12T02:24:55.162Z,18.3
2016-08-12T02:25:07.777Z,18.4
2016-08-12T02:25:21.890Z,18.4
2016-08-12T02:25:35.326Z,18.4
2016-08-12T02:25:48.709Z,18.5
2016-08-12T02:26:02.092Z,18.5
2016-08-12T02:26:16.211Z,18.4
2016-08-12T02:26:29.616Z,18.5
2016-08-12T02:26:44.566Z,18.5
2016-08-12T02:26:57.194Z,18.4
2016-08-12T02:27:11.320Z,18.5
2016-08-12T02:27:24.688Z,18.5
2016-08-12T02:27:38.829Z,18.5
2016-08-12T02:27:53.703Z,18.5
2016-08-12T02:28:07.823Z,18.2
2016-08-12T02:28:21.928Z,18.3
2016-08-12T02:28:33.032Z,18.3
2016-08-12T02:28:45.669Z,18.4
2016-08-12T02:28:58.287Z,18.4
2016-08-12T02:29:12.394Z,18.5
2016-08-12T02:29:24.270Z,18.5
2016-08-12T02:29:37.636Z,18.5
2016-08-12T02:29:50.235Z,18.5
2016-08-12T02:30:05.098Z,18.5
2016-08-12T02:30:17.709Z,18.4
2016-08-12T02:30:31.075Z,18.5
2016-08-12T02:30:45.174Z,18.4
2016-08-12T02:30:59.364Z,18.5
2016-08-12T02:31:11.253Z,18.4
2016-08-12T02:31:25.357Z,18.5
2016-08-12T02:31:39.475Z,18.4
2016-08-12T02:31:53.595Z,18.4
2016-08-12T02:32:06.212Z,18.5
2016-08-12T02:32:19.587Z,18.4
2016-08-12T02:32:35.204Z,18.4
2016-08-12T02:32:48.569Z,18.5
2016-08-12T02:33:02.728Z,18.5
2016-08-12T02:33:16.846Z,18.4
2016-08-12T02:33:39.005Z,18.6
2016-08-12T02:33:51.610Z,18.5
2016-08-12T02:34:06.475Z,18.5
2016-08-12T02:34:19.200Z,18.4
2016-08-12T02:34:31.085Z,18.4
2016-08-12T02:34:43.001Z,18.4
2016-08-12T02:34:57.109Z,18.4
2016-08-12T02:35:08.995Z,18.5
2016-08-12T02:35:23.855Z,18.5
2016-08-12T02:35:37.234Z,18.5
2016-08-12T02:35:50.589Z,18.5
2016-08-12T02:36:04.755Z,18.5
2016-08-12T02:36:17.388Z,18.5
2016-08-12T02:36:31.502Z,18.5
2016-08-12T02:36:44.124Z,18.5
2016-08-12T02:36:57.482Z,18.5
2016-08-12T02:37:11.624Z,18.4
2016-08-12T02:37:24.278Z,18.4
2016-08-12T02:37:38.409Z,18.5
2016-08-12T02:37:51.800Z,18.5
2016-08-12T02:38:05.166Z,18.6
2016-08-12T02:38:18.520Z,18.6
2016-08-12T02:38:30.379Z,18.6
2016-08-12T02:38:42.247Z,18.6
2016-08-12T02:38:57.114Z,18.5
2016-08-12T02:39:10.503Z,18.5
2016-08-12T02:39:23.912Z,18.6
2016-08-12T02:39:38.035Z,18.6
2016-08-12T02:39:52.147Z,18.5
2016-08-12T02:40:06.308Z,18.7
2016-08-12T02:40:21.937Z,18.5
2016-08-12T02:40:35.298Z,18.6
2016-08-12T02:40:50.924Z,18.5
2016-08-12T02:41:05.790Z,18.5
2016-08-12T02:41:20.660Z,18.5
2016-08-12T02:41:34.776Z,18.5
2016-08-12T02:41:48.161Z,18.5
2016-08-12T02:42:03.034Z,18.5
2016-08-12T02:42:16.388Z,18.6
2016-08-12T02:42:29.756Z,18.6
2016-08-12T02:42:43.140Z,18.6
2016-08-12T02:42:56.505Z,18.6
2016-08-12T02:43:08.372Z,18.7
2016-08-12T02:43:21.755Z,18.6
2016-08-12T02:43:34.376Z,18.7
2016-08-12T02:43:44.741Z,18.7
2016-08-12T02:43:58.852Z,18.7
2016-08-12T02:44:11.493Z,18.6
2016-08-12T02:44:24.106Z,18.7
2016-08-12T02:44:37.539Z,18.7
2016-08-12T02:44:52.413Z,18.7
2016-08-12T02:45:05.787Z,18.7
2016-08-12T02:45:19.167Z,18.7
2016-08-12T02:45:33.277Z,18.8
2016-08-12T02:45:45.889Z,18.7
2016-08-12T02:45:59.348Z,18.7
2016-08-12T02:46:13.466Z,18.7
2016-08-12T02:46:25.345Z,18.6
2016-08-12T02:46:39.468Z,18.6
2016-08-12T02:46:53.579Z,18.7
2016-08-12T02:47:08.447Z,18.6
2016-08-12T02:47:23.331Z,18.4
2016-08-12T02:47:36.693Z,18.4
2016-08-12T02:47:49.306Z,18.6
2016-08-12T02:48:01.926Z,18.6
2016-08-12T02:48:14.587Z,18.6
2016-08-12T02:48:27.266Z,18.6
2016-08-12T02:48:50.955Z,18.7
2016-08-12T02:49:02.810Z,18.6
2016-08-12T02:49:15.485Z,18.6
2016-08-12T02:49:28.851Z,18.6
2016-08-12T02:49:42.232Z,18.7
2016-08-12T02:49:55.616Z,18.6
2016-08-12T02:50:09.748Z,18.8
2016-08-12T02:50:23.875Z,18.7
2016-08-12T02:50:36.496Z,18.7
2016-08-12T02:50:49.106Z,18.8
2016-08-12T02:51:01.740Z,18.7
2016-08-12T02:51:16.616Z,18.6
2016-08-12T02:51:30.734Z,18.6
2016-08-12T02:51:44.846Z,18.6
2016-08-12T02:51:58.983Z,18.6
2016-08-12T02:52:12.362Z,18.6
2016-08-12T02:52:24.240Z,18.6
2016-08-12T02:52:38.349Z,18.7
2016-08-12T02:52:52.459Z,18.6
2016-08-12T02:53:06.564Z,18.5
2016-08-12T02:53:19.924Z,18.6
2016-08-12T02:53:31.048Z,18.7
2016-08-12T02:53:45.923Z,18.7
2016-08-12T02:53:59.290Z,18.5
2016-08-12T02:54:13.403Z,18.5
2016-08-12T02:54:27.519Z,18.6
2016-08-12T02:54:40.154Z,18.5
2016-08-12T02:54:55.026Z,18.6
2016-08-12T02:55:09.897Z,18.6
2016-08-12T02:55:21.022Z,18.6
2016-08-12T02:55:35.129Z,18.6
2016-08-12T02:55:48.488Z,18.6
2016-08-12T02:56:02.602Z,18.6
2016-08-12T02:56:14.477Z,18.6
2016-08-12T02:56:27.837Z,18.6
2016-08-12T02:56:42.710Z,18.6
2016-08-12T02:56:56.823Z,18.5
2016-08-12T02:57:11.738Z,18.6
2016-08-12T02:57:27.352Z,18.5
2016-08-12T02:57:39.201Z,18.5
2016-08-12T02:57:53.307Z,18.5
2016-08-12T02:58:08.928Z,18.3
2016-08-12T02:58:23.789Z,18.3
2016-08-12T02:58:36.415Z,18.3
2016-08-12T02:58:46.374Z,18.3
2016-08-12T02:59:00.490Z,18.5
2016-08-12T02:59:15.368Z,18.4
2016-08-12T02:59:29.492Z,18.4
2016-08-12T02:59:42.103Z,18.2
2016-08-12T02:59:54.732Z,18.4
2016-08-12T03:00:09.668Z,18.4
2016-08-12T03:00:24.572Z,18.4
2016-08-12T03:00:37.928Z,18.5
2016-08-12T03:00:52.064Z,18.4
2016-08-12T03:01:06.929Z,18.3
2016-08-12T03:01:20.281Z,18.3
2016-08-12T03:01:32.125Z,18.4
2016-08-12T03:01:47.018Z,18.3
2016-08-12T03:01:58.866Z,18.3
2016-08-12T03:02:13.729Z,18.3
2016-08-12T03:02:28.593Z,18.3
2016-08-12T03:02:43.463Z,18.4
2016-08-12T03:02:56.109Z,18.4